sensor_id;sensor_type;location;lat;lon;timestamp;P1;durP1;ratioP1;P2;durP2;ratioP2
3916;SDS011;1973;50.518;7.318;2023-04-24T00:00:43;1.87;;;0.70;;
3916;SDS011;1973;50.518;7.318;2023-04-24T00:03:11;1.30;;;0.70;;
3916;SDS011;1973;50.518;7.318;2023-04-24T00:05:39;2.83;;;0.70;;
3916;SDS011;1973;50.518;7.318;2023-04-24T00:08:06;1.00;;;0.50;;
3916;SDS011;1973;50.518;7.318;2023-04-24T00:10:33;1.10;;;0.70;;
3916;SDS011;1973;50.518;7.318;2023-04-24T00:12:59;3.87;;;0.80;;
3916;SDS011;1973;50.518;7.318;2023-04-24T00:15:25;1.10;;;0.60;;
3916;SDS011;1973;50.518;7.318;2023-04-24T00:17:52;1.10;;;0.70;;
3916;SDS011;1973;50.518;7.318;2023-04-24T00:20:19;2.47;;;0.70;;
3916;SDS011;1973;50.518;7.318;2023-04-24T00:22:46;1.00;;;0.60;;
3916;SDS011;1973;50.518;7.318;2023-04-24T00:25:12;1.23;;;0.70;;
3916;SDS011;1973;50.518;7.318;2023-04-24T00:27:39;1.43;;;0.83;;
3916;SDS011;1973;50.518;7.318;2023-04-24T00:30:05;1.60;;;0.70;;
3916;SDS011;1973;50.518;7.318;2023-04-24T00:32:32;2.40;;;0.80;;
3916;SDS011;1973;50.518;7.318;2023-04-24T00:34:59;1.93;;;1.00;;
3916;SDS011;1973;50.518;7.318;2023-04-24T00:37:25;1.90;;;0.87;;
3916;SDS011;1973;50.518;7.318;2023-04-24T00:39:52;0.90;;;0.60;;
3916;SDS011;1973;50.518;7.318;2023-04-24T00:42:18;0.90;;;0.50;;
3916;SDS011;1973;50.518;7.318;2023-04-24T00:44:45;1.53;;;0.63;;
3916;SDS011;1973;50.518;7.318;2023-04-24T00:47:11;1.10;;;0.60;;
3916;SDS011;1973;50.518;7.318;2023-04-24T00:49:38;1.33;;;0.70;;
3916;SDS011;1973;50.518;7.318;2023-04-24T00:52:05;3.00;;;0.73;;
3916;SDS011;1973;50.518;7.318;2023-04-24T00:54:35;0.90;;;0.60;;
3916;SDS011;1973;50.518;7.318;2023-04-24T00:57:04;1.10;;;0.60;;
3916;SDS011;1973;50.518;7.318;2023-04-24T00:59:31;1.77;;;0.60;;
3916;SDS011;1973;50.518;7.318;2023-04-24T01:01:58;0.90;;;0.60;;
3916;SDS011;1973;50.518;7.318;2023-04-24T01:04:25;1.00;;;0.70;;
3916;SDS011;1973;50.518;7.318;2023-04-24T01:06:52;0.90;;;0.70;;
3916;SDS011;1973;50.518;7.318;2023-04-24T01:09:21;1.93;;;0.60;;
3916;SDS011;1973;50.518;7.318;2023-04-24T01:11:49;1.23;;;0.50;;
3916;SDS011;1973;50.518;7.318;2023-04-24T01:14:16;1.27;;;0.60;;
3916;SDS011;1973;50.518;7.318;2023-04-24T01:16:42;1.60;;;0.90;;
3916;SDS011;1973;50.518;7.318;2023-04-24T01:19:09;0.90;;;0.60;;
3916;SDS011;1973;50.518;7.318;2023-04-24T01:21:37;1.20;;;0.70;;
3916;SDS011;1973;50.518;7.318;2023-04-24T01:24:04;2.37;;;0.67;;
3916;SDS011;1973;50.518;7.318;2023-04-24T01:26:31;1.10;;;0.60;;
3916;SDS011;1973;50.518;7.318;2023-04-24T01:28:58;1.70;;;0.77;;
3916;SDS011;1973;50.518;7.318;2023-04-24T01:31:24;3.83;;;0.80;;
3916;SDS011;1973;50.518;7.318;2023-04-24T01:33:52;1.10;;;0.60;;
3916;SDS011;1973;50.518;7.318;2023-04-24T01:36:18;0.90;;;0.60;;
3916;SDS011;1973;50.518;7.318;2023-04-24T01:38:45;7.87;;;0.80;;
3916;SDS011;1973;50.518;7.318;2023-04-24T01:41:12;2.03;;;0.80;;
3916;SDS011;1973;50.518;7.318;2023-04-24T01:43:38;1.63;;;0.73;;
3916;SDS011;1973;50.518;7.318;2023-04-24T01:46:05;2.80;;;0.80;;
3916;SDS011;1973;50.518;7.318;2023-04-24T01:48:33;1.30;;;0.77;;
3916;SDS011;1973;50.518;7.318;2023-04-24T01:50:59;1.40;;;0.80;;
3916;SDS011;1973;50.518;7.318;2023-04-24T01:53:26;1.37;;;0.80;;
3916;SDS011;1973;50.518;7.318;2023-04-24T01:55:52;1.80;;;0.93;;
3916;SDS011;1973;50.518;7.318;2023-04-24T01:58:19;1.20;;;0.73;;
3916;SDS011;1973;50.518;7.318;2023-04-24T02:00:46;2.33;;;0.97;;
3916;SDS011;1973;50.518;7.318;2023-04-24T02:03:12;2.17;;;1.07;;
3916;SDS011;1973;50.518;7.318;2023-04-24T02:05:39;2.40;;;1.27;;
3916;SDS011;1973;50.518;7.318;2023-04-24T02:08:05;1.63;;;1.23;;
3916;SDS011;1973;50.518;7.318;2023-04-24T02:10:31;1.63;;;1.13;;
3916;SDS011;1973;50.518;7.318;2023-04-24T02:12:58;2.23;;;1.20;;
3916;SDS011;1973;50.518;7.318;2023-04-24T02:15:25;4.13;;;1.53;;
3916;SDS011;1973;50.518;7.318;2023-04-24T02:17:52;1.80;;;1.33;;
3916;SDS011;1973;50.518;7.318;2023-04-24T02:20:18;2.27;;;1.30;;
3916;SDS011;1973;50.518;7.318;2023-04-24T02:22:45;1.70;;;1.60;;
3916;SDS011;1973;50.518;7.318;2023-04-24T02:25:11;1.80;;;1.50;;
3916;SDS011;1973;50.518;7.318;2023-04-24T02:27:37;2.60;;;1.47;;
3916;SDS011;1973;50.518;7.318;2023-04-24T02:30:04;2.20;;;1.80;;
3916;SDS011;1973;50.518;7.318;2023-04-24T02:32:31;6.40;;;2.03;;
3916;SDS011;1973;50.518;7.318;2023-04-24T02:34:58;1.63;;;1.53;;
3916;SDS011;1973;50.518;7.318;2023-04-24T02:37:24;4.60;;;2.63;;
3916;SDS011;1973;50.518;7.318;2023-04-24T02:39:51;2.30;;;2.10;;
3916;SDS011;1973;50.518;7.318;2023-04-24T02:42:17;2.47;;;2.27;;
3916;SDS011;1973;50.518;7.318;2023-04-24T02:44:43;3.10;;;2.37;;
3916;SDS011;1973;50.518;7.318;2023-04-24T02:47:10;2.57;;;1.93;;
3916;SDS011;1973;50.518;7.318;2023-04-24T02:49:36;2.20;;;2.00;;
3916;SDS011;1973;50.518;7.318;2023-04-24T02:52:03;3.10;;;2.20;;
3916;SDS011;1973;50.518;7.318;2023-04-24T02:54:29;2.87;;;2.20;;
3916;SDS011;1973;50.518;7.318;2023-04-24T02:56:56;2.70;;;2.20;;
3916;SDS011;1973;50.518;7.318;2023-04-24T02:59:22;2.90;;;2.40;;
3916;SDS011;1973;50.518;7.318;2023-04-24T03:01:49;2.73;;;2.53;;
3916;SDS011;1973;50.518;7.318;2023-04-24T03:04:15;2.37;;;2.10;;
3916;SDS011;1973;50.518;7.318;2023-04-24T03:06:42;4.93;;;2.73;;
3916;SDS011;1973;50.518;7.318;2023-04-24T03:09:09;3.30;;;2.60;;
3916;SDS011;1973;50.518;7.318;2023-04-24T03:11:35;4.57;;;3.97;;
3916;SDS011;1973;50.518;7.318;2023-04-24T03:14:02;3.80;;;3.30;;
3916;SDS011;1973;50.518;7.318;2023-04-24T03:16:28;4.63;;;3.40;;
3916;SDS011;1973;50.518;7.318;2023-04-24T03:18:55;3.30;;;3.00;;
3916;SDS011;1973;50.518;7.318;2023-04-24T03:21:22;5.10;;;3.00;;
3916;SDS011;1973;50.518;7.318;2023-04-24T03:23:48;4.40;;;3.20;;
3916;SDS011;1973;50.518;7.318;2023-04-24T03:26:15;3.73;;;3.10;;
3916;SDS011;1973;50.518;7.318;2023-04-24T03:28:41;5.37;;;3.73;;
3916;SDS011;1973;50.518;7.318;2023-04-24T03:31:08;4.13;;;3.13;;
3916;SDS011;1973;50.518;7.318;2023-04-24T03:33:34;3.80;;;3.33;;
3916;SDS011;1973;50.518;7.318;2023-04-24T03:36:02;5.53;;;3.70;;
3916;SDS011;1973;50.518;7.318;2023-04-24T03:38:28;5.30;;;3.30;;
3916;SDS011;1973;50.518;7.318;2023-04-24T03:40:55;5.20;;;3.67;;
3916;SDS011;1973;50.518;7.318;2023-04-24T03:43:21;5.80;;;3.53;;
3916;SDS011;1973;50.518;7.318;2023-04-24T03:45:48;3.77;;;3.40;;
3916;SDS011;1973;50.518;7.318;2023-04-24T03:48:15;4.10;;;3.70;;
3916;SDS011;1973;50.518;7.318;2023-04-24T03:50:41;4.27;;;3.50;;
3916;SDS011;1973;50.518;7.318;2023-04-24T03:53:07;5.17;;;3.70;;
3916;SDS011;1973;50.518;7.318;2023-04-24T03:55:34;4.10;;;3.70;;
3916;SDS011;1973;50.518;7.318;2023-04-24T03:58:01;3.90;;;3.50;;
3916;SDS011;1973;50.518;7.318;2023-04-24T04:00:27;6.80;;;3.53;;
3916;SDS011;1973;50.518;7.318;2023-04-24T04:02:54;4.17;;;3.83;;
3916;SDS011;1973;50.518;7.318;2023-04-24T04:05:21;4.43;;;4.03;;
3916;SDS011;1973;50.518;7.318;2023-04-24T04:07:48;5.60;;;4.07;;
3916;SDS011;1973;50.518;7.318;2023-04-24T04:10:14;5.07;;;3.80;;
3916;SDS011;1973;50.518;7.318;2023-04-24T04:12:41;4.13;;;3.73;;
3916;SDS011;1973;50.518;7.318;2023-04-24T04:15:07;4.80;;;3.80;;
3916;SDS011;1973;50.518;7.318;2023-04-24T04:17:34;5.43;;;3.80;;
3916;SDS011;1973;50.518;7.318;2023-04-24T04:20:00;4.50;;;3.60;;
3916;SDS011;1973;50.518;7.318;2023-04-24T04:22:27;4.13;;;3.70;;
3916;SDS011;1973;50.518;7.318;2023-04-24T04:24:54;4.30;;;3.90;;
3916;SDS011;1973;50.518;7.318;2023-04-24T04:27:20;4.50;;;4.10;;
3916;SDS011;1973;50.518;7.318;2023-04-24T04:29:47;5.17;;;4.07;;
3916;SDS011;1973;50.518;7.318;2023-04-24T04:32:13;5.30;;;3.90;;
3916;SDS011;1973;50.518;7.318;2023-04-24T04:34:41;5.17;;;4.43;;
3916;SDS011;1973;50.518;7.318;2023-04-24T04:37:08;4.20;;;3.77;;
3916;SDS011;1973;50.518;7.318;2023-04-24T04:39:36;4.77;;;3.57;;
3916;SDS011;1973;50.518;7.318;2023-04-24T04:42:03;6.53;;;4.13;;
3916;SDS011;1973;50.518;7.318;2023-04-24T04:44:29;5.00;;;3.80;;
3916;SDS011;1973;50.518;7.318;2023-04-24T04:46:57;7.50;;;4.10;;
3916;SDS011;1973;50.518;7.318;2023-04-24T04:49:23;5.80;;;5.10;;
3916;SDS011;1973;50.518;7.318;2023-04-24T04:51:50;4.60;;;4.00;;
3916;SDS011;1973;50.518;7.318;2023-04-24T04:54:17;4.57;;;4.10;;
3916;SDS011;1973;50.518;7.318;2023-04-24T04:56:43;6.73;;;4.20;;
3916;SDS011;1973;50.518;7.318;2023-04-24T04:59:10;5.20;;;4.10;;
3916;SDS011;1973;50.518;7.318;2023-04-24T05:01:37;7.83;;;4.20;;
3916;SDS011;1973;50.518;7.318;2023-04-24T05:04:04;4.40;;;3.60;;
3916;SDS011;1973;50.518;7.318;2023-04-24T05:06:30;5.80;;;4.70;;
3916;SDS011;1973;50.518;7.318;2023-04-24T05:08:57;5.80;;;4.37;;
3916;SDS011;1973;50.518;7.318;2023-04-24T05:11:23;4.23;;;3.83;;
3916;SDS011;1973;50.518;7.318;2023-04-24T05:13:50;5.73;;;4.13;;
3916;SDS011;1973;50.518;7.318;2023-04-24T05:16:16;5.33;;;3.83;;
3916;SDS011;1973;50.518;7.318;2023-04-24T05:18:43;4.87;;;3.90;;
3916;SDS011;1973;50.518;7.318;2023-04-24T05:21:09;4.90;;;4.10;;
3916;SDS011;1973;50.518;7.318;2023-04-24T05:23:36;4.40;;;4.00;;
3916;SDS011;1973;50.518;7.318;2023-04-24T05:26:02;5.50;;;4.20;;
3916;SDS011;1973;50.518;7.318;2023-04-24T05:28:32;4.20;;;3.70;;
3916;SDS011;1973;50.518;7.318;2023-04-24T05:30:58;4.27;;;3.70;;
3916;SDS011;1973;50.518;7.318;2023-04-24T05:33:25;5.00;;;4.30;;
3916;SDS011;1973;50.518;7.318;2023-04-24T05:35:52;5.00;;;4.13;;
3916;SDS011;1973;50.518;7.318;2023-04-24T05:38:18;4.90;;;4.37;;
3916;SDS011;1973;50.518;7.318;2023-04-24T05:40:45;4.07;;;3.70;;
3916;SDS011;1973;50.518;7.318;2023-04-24T05:43:12;6.27;;;4.10;;
3916;SDS011;1973;50.518;7.318;2023-04-24T05:45:39;5.07;;;4.40;;
3916;SDS011;1973;50.518;7.318;2023-04-24T05:48:05;5.67;;;4.50;;
3916;SDS011;1973;50.518;7.318;2023-04-24T05:50:32;6.70;;;4.60;;
3916;SDS011;1973;50.518;7.318;2023-04-24T05:53:01;5.73;;;5.23;;
3916;SDS011;1973;50.518;7.318;2023-04-24T05:55:28;6.37;;;4.87;;
3916;SDS011;1973;50.518;7.318;2023-04-24T05:57:56;4.80;;;4.03;;
3916;SDS011;1973;50.518;7.318;2023-04-24T06:00:23;6.43;;;4.47;;
3916;SDS011;1973;50.518;7.318;2023-04-24T06:02:50;10.20;;;4.90;;
3916;SDS011;1973;50.518;7.318;2023-04-24T06:05:19;5.50;;;4.90;;
3916;SDS011;1973;50.518;7.318;2023-04-24T06:07:46;5.13;;;4.67;;
3916;SDS011;1973;50.518;7.318;2023-04-24T06:10:12;7.17;;;5.17;;
3916;SDS011;1973;50.518;7.318;2023-04-24T06:12:38;5.53;;;4.50;;
3916;SDS011;1973;50.518;7.318;2023-04-24T06:15:05;5.37;;;4.60;;
3916;SDS011;1973;50.518;7.318;2023-04-24T06:17:33;7.73;;;4.83;;
3916;SDS011;1973;50.518;7.318;2023-04-24T06:19:59;6.80;;;5.07;;
3916;SDS011;1973;50.518;7.318;2023-04-24T06:22:26;6.77;;;5.70;;
3916;SDS011;1973;50.518;7.318;2023-04-24T06:24:52;7.57;;;5.37;;
3916;SDS011;1973;50.518;7.318;2023-04-24T06:27:19;9.60;;;5.63;;
3916;SDS011;1973;50.518;7.318;2023-04-24T06:29:45;7.80;;;5.33;;
3916;SDS011;1973;50.518;7.318;2023-04-24T06:32:12;7.43;;;5.67;;
3916;SDS011;1973;50.518;7.318;2023-04-24T06:34:38;6.73;;;5.40;;
3916;SDS011;1973;50.518;7.318;2023-04-24T06:37:04;6.00;;;5.23;;
3916;SDS011;1973;50.518;7.318;2023-04-24T06:39:31;6.50;;;5.80;;
3916;SDS011;1973;50.518;7.318;2023-04-24T06:41:58;6.10;;;5.50;;
3916;SDS011;1973;50.518;7.318;2023-04-24T06:44:25;7.03;;;5.53;;
3916;SDS011;1973;50.518;7.318;2023-04-24T06:46:51;7.60;;;5.40;;
3916;SDS011;1973;50.518;7.318;2023-04-24T06:49:18;6.27;;;5.50;;
3916;SDS011;1973;50.518;7.318;2023-04-24T06:51:44;6.30;;;4.77;;
3916;SDS011;1973;50.518;7.318;2023-04-24T06:54:11;5.60;;;5.10;;
3916;SDS011;1973;50.518;7.318;2023-04-24T06:56:37;5.80;;;4.90;;
3916;SDS011;1973;50.518;7.318;2023-04-24T06:59:04;6.83;;;5.57;;
3916;SDS011;1973;50.518;7.318;2023-04-24T07:01:30;6.77;;;5.00;;
3916;SDS011;1973;50.518;7.318;2023-04-24T07:03:57;6.13;;;4.70;;
3916;SDS011;1973;50.518;7.318;2023-04-24T07:06:24;5.30;;;4.50;;
3916;SDS011;1973;50.518;7.318;2023-04-24T07:08:50;6.17;;;4.30;;
3916;SDS011;1973;50.518;7.318;2023-04-24T07:11:17;4.90;;;3.90;;
3916;SDS011;1973;50.518;7.318;2023-04-24T07:13:43;4.87;;;4.40;;
3916;SDS011;1973;50.518;7.318;2023-04-24T07:16:10;5.47;;;4.50;;
3916;SDS011;1973;50.518;7.318;2023-04-24T07:18:37;6.20;;;4.07;;
3916;SDS011;1973;50.518;7.318;2023-04-24T07:21:05;4.37;;;3.97;;
3916;SDS011;1973;50.518;7.318;2023-04-24T07:23:32;4.67;;;3.50;;
3916;SDS011;1973;50.518;7.318;2023-04-24T07:25:59;3.70;;;3.03;;
3916;SDS011;1973;50.518;7.318;2023-04-24T07:28:25;4.60;;;3.47;;
3916;SDS011;1973;50.518;7.318;2023-04-24T07:30:52;3.60;;;3.30;;
3916;SDS011;1973;50.518;7.318;2023-04-24T07:33:20;6.47;;;3.40;;
3916;SDS011;1973;50.518;7.318;2023-04-24T07:35:46;3.60;;;2.90;;
3916;SDS011;1973;50.518;7.318;2023-04-24T07:38:13;3.50;;;3.20;;
3916;SDS011;1973;50.518;7.318;2023-04-24T07:40:39;3.30;;;2.90;;
3916;SDS011;1973;50.518;7.318;2023-04-24T07:43:06;4.30;;;2.90;;
3916;SDS011;1973;50.518;7.318;2023-04-24T07:45:32;5.70;;;2.37;;
3916;SDS011;1973;50.518;7.318;2023-04-24T07:48:02;3.00;;;2.10;;
3916;SDS011;1973;50.518;7.318;2023-04-24T07:50:29;3.40;;;2.40;;
3916;SDS011;1973;50.518;7.318;2023-04-24T07:52:55;3.40;;;2.90;;
3916;SDS011;1973;50.518;7.318;2023-04-24T07:55:22;2.53;;;2.27;;
3916;SDS011;1973;50.518;7.318;2023-04-24T07:57:53;2.20;;;2.00;;
3916;SDS011;1973;50.518;7.318;2023-04-24T08:00:19;2.40;;;2.20;;
3916;SDS011;1973;50.518;7.318;2023-04-24T08:02:47;2.30;;;2.00;;
3916;SDS011;1973;50.518;7.318;2023-04-24T08:05:14;4.80;;;2.30;;
3916;SDS011;1973;50.518;7.318;2023-04-24T08:07:40;2.00;;;1.80;;
3916;SDS011;1973;50.518;7.318;2023-04-24T08:10:09;3.30;;;1.90;;
3916;SDS011;1973;50.518;7.318;2023-04-24T08:12:38;2.87;;;2.03;;
3916;SDS011;1973;50.518;7.318;2023-04-24T08:15:05;2.23;;;1.83;;
3916;SDS011;1973;50.518;7.318;2023-04-24T08:17:33;2.00;;;1.70;;
3916;SDS011;1973;50.518;7.318;2023-04-24T08:20:02;3.80;;;1.70;;
3916;SDS011;1973;50.518;7.318;2023-04-24T08:22:29;2.13;;;1.93;;
3916;SDS011;1973;50.518;7.318;2023-04-24T08:24:57;2.50;;;1.50;;
3916;SDS011;1973;50.518;7.318;2023-04-24T08:27:26;2.00;;;1.60;;
3916;SDS011;1973;50.518;7.318;2023-04-24T08:29:53;1.70;;;1.60;;
3916;SDS011;1973;50.518;7.318;2023-04-24T08:32:20;1.60;;;1.40;;
3916;SDS011;1973;50.518;7.318;2023-04-24T08:34:46;1.27;;;1.03;;
3916;SDS011;1973;50.518;7.318;2023-04-24T08:37:14;1.77;;;1.50;;
3916;SDS011;1973;50.518;7.318;2023-04-24T08:39:41;1.40;;;1.10;;
3916;SDS011;1973;50.518;7.318;2023-04-24T08:42:08;1.60;;;1.10;;
3916;SDS011;1973;50.518;7.318;2023-04-24T08:44:36;2.60;;;1.40;;
3916;SDS011;1973;50.518;7.318;2023-04-24T08:47:03;1.63;;;1.23;;
3916;SDS011;1973;50.518;7.318;2023-04-24T08:49:31;1.23;;;1.10;;
3916;SDS011;1973;50.518;7.318;2023-04-24T08:51:58;1.60;;;1.10;;
3916;SDS011;1973;50.518;7.318;2023-04-24T08:54:25;1.50;;;1.07;;
3916;SDS011;1973;50.518;7.318;2023-04-24T08:56:53;1.73;;;1.10;;
3916;SDS011;1973;50.518;7.318;2023-04-24T08:59:23;1.33;;;0.80;;
3916;SDS011;1973;50.518;7.318;2023-04-24T09:01:50;1.37;;;1.00;;
3916;SDS011;1973;50.518;7.318;2023-04-24T09:04:18;1.20;;;0.80;;
3916;SDS011;1973;50.518;7.318;2023-04-24T09:06:48;2.30;;;0.90;;
3916;SDS011;1973;50.518;7.318;2023-04-24T09:09:16;1.10;;;0.70;;
3916;SDS011;1973;50.518;7.318;2023-04-24T09:11:44;4.70;;;1.53;;
3916;SDS011;1973;50.518;7.318;2023-04-24T09:14:11;1.90;;;1.13;;
3916;SDS011;1973;50.518;7.318;2023-04-24T09:16:37;2.43;;;0.90;;
3916;SDS011;1973;50.518;7.318;2023-04-24T09:19:04;1.27;;;0.90;;
3916;SDS011;1973;50.518;7.318;2023-04-24T09:21:31;1.53;;;0.70;;
3916;SDS011;1973;50.518;7.318;2023-04-24T09:24:05;1.10;;;0.60;;
3916;SDS011;1973;50.518;7.318;2023-04-24T09:26:36;1.90;;;0.60;;
3916;SDS011;1973;50.518;7.318;2023-04-24T09:29:03;1.43;;;0.80;;
3916;SDS011;1973;50.518;7.318;2023-04-24T09:31:30;2.27;;;0.80;;
3916;SDS011;1973;50.518;7.318;2023-04-24T09:36:33;1.00;;;0.70;;
3916;SDS011;1973;50.518;7.318;2023-04-24T09:39:06;1.10;;;0.73;;
3916;SDS011;1973;50.518;7.318;2023-04-24T09:41:35;3.73;;;0.90;;
3916;SDS011;1973;50.518;7.318;2023-04-24T09:44:11;1.10;;;0.67;;
3916;SDS011;1973;50.518;7.318;2023-04-24T09:46:40;1.60;;;0.97;;
3916;SDS011;1973;50.518;7.318;2023-04-24T09:49:14;1.40;;;0.80;;
3916;SDS011;1973;50.518;7.318;2023-04-24T09:51:42;1.93;;;1.20;;
3916;SDS011;1973;50.518;7.318;2023-04-24T09:54:15;1.47;;;0.97;;
3916;SDS011;1973;50.518;7.318;2023-04-24T09:56:48;1.00;;;0.70;;
3916;SDS011;1973;50.518;7.318;2023-04-24T09:59:16;3.17;;;2.47;;
3916;SDS011;1973;50.518;7.318;2023-04-24T10:01:43;3.67;;;2.30;;
3916;SDS011;1973;50.518;7.318;2023-04-24T10:04:17;2.37;;;1.87;;
3916;SDS011;1973;50.518;7.318;2023-04-24T10:06:49;1.67;;;1.30;;
3916;SDS011;1973;50.518;7.318;2023-04-24T10:09:17;1.77;;;1.27;;
3916;SDS011;1973;50.518;7.318;2023-04-24T10:11:45;1.30;;;1.00;;
3916;SDS011;1973;50.518;7.318;2023-04-24T10:14:15;1.60;;;1.00;;
3916;SDS011;1973;50.518;7.318;2023-04-24T10:16:46;2.07;;;1.10;;
3916;SDS011;1973;50.518;7.318;2023-04-24T10:19:14;2.43;;;1.30;;
3916;SDS011;1973;50.518;7.318;2023-04-24T10:21:41;1.27;;;1.00;;
3916;SDS011;1973;50.518;7.318;2023-04-24T10:24:18;1.80;;;1.20;;
3916;SDS011;1973;50.518;7.318;2023-04-24T10:26:47;1.67;;;0.93;;
3916;SDS011;1973;50.518;7.318;2023-04-24T10:29:15;2.10;;;1.30;;
3916;SDS011;1973;50.518;7.318;2023-04-24T10:31:43;1.30;;;1.10;;
3916;SDS011;1973;50.518;7.318;2023-04-24T10:34:12;2.17;;;1.13;;
3916;SDS011;1973;50.518;7.318;2023-04-24T10:36:43;2.60;;;1.20;;
3916;SDS011;1973;50.518;7.318;2023-04-24T10:39:13;1.87;;;1.03;;
3916;SDS011;1973;50.518;7.318;2023-04-24T10:41:43;2.03;;;1.00;;
3916;SDS011;1973;50.518;7.318;2023-04-24T10:44:14;1.20;;;1.00;;
3916;SDS011;1973;50.518;7.318;2023-04-24T10:46:45;1.40;;;1.10;;
3916;SDS011;1973;50.518;7.318;2023-04-24T10:49:15;3.50;;;1.60;;
3916;SDS011;1973;50.518;7.318;2023-04-24T10:51:46;2.10;;;1.50;;
3916;SDS011;1973;50.518;7.318;2023-04-24T10:54:24;2.17;;;1.60;;
3916;SDS011;1973;50.518;7.318;2023-04-24T10:59:46;2.40;;;2.17;;
3916;SDS011;1973;50.518;7.318;2023-04-24T11:02:14;3.17;;;1.97;;
3916;SDS011;1973;50.518;7.318;2023-04-24T11:04:41;2.00;;;1.73;;
3916;SDS011;1973;50.518;7.318;2023-04-24T11:07:12;4.70;;;2.10;;
3916;SDS011;1973;50.518;7.318;2023-04-24T11:09:39;3.83;;;2.40;;
3916;SDS011;1973;50.518;7.318;2023-04-24T11:12:09;4.20;;;2.73;;
3916;SDS011;1973;50.518;7.318;2023-04-24T11:17:32;5.70;;;2.63;;
3916;SDS011;1973;50.518;7.318;2023-04-24T11:20:01;3.17;;;2.80;;
3916;SDS011;1973;50.518;7.318;2023-04-24T11:22:54;3.57;;;2.60;;
3916;SDS011;1973;50.518;7.318;2023-04-24T11:25:21;3.20;;;2.50;;
3916;SDS011;1973;50.518;7.318;2023-04-24T11:27:52;4.83;;;3.20;;
3916;SDS011;1973;50.518;7.318;2023-04-24T11:30:29;3.40;;;3.00;;
3916;SDS011;1973;50.518;7.318;2023-04-24T11:33:01;4.10;;;2.90;;
3916;SDS011;1973;50.518;7.318;2023-04-24T11:35:29;4.33;;;2.70;;
3916;SDS011;1973;50.518;7.318;2023-04-24T11:37:56;3.70;;;2.60;;
3916;SDS011;1973;50.518;7.318;2023-04-24T11:40:26;4.83;;;2.83;;
3916;SDS011;1973;50.518;7.318;2023-04-24T11:42:53;6.17;;;3.00;;
3916;SDS011;1973;50.518;7.318;2023-04-24T11:47:51;3.57;;;2.90;;
3916;SDS011;1973;50.518;7.318;2023-04-24T11:50:18;3.23;;;2.90;;
3916;SDS011;1973;50.518;7.318;2023-04-24T11:52:46;7.00;;;3.50;;
3916;SDS011;1973;50.518;7.318;2023-04-24T11:57:47;4.50;;;3.50;;
3916;SDS011;1973;50.518;7.318;2023-04-24T12:00:22;7.33;;;3.00;;
3916;SDS011;1973;50.518;7.318;2023-04-24T12:02:51;4.23;;;3.50;;
3916;SDS011;1973;50.518;7.318;2023-04-24T12:05:28;4.43;;;3.20;;
3916;SDS011;1973;50.518;7.318;2023-04-24T12:07:57;3.80;;;2.90;;
3916;SDS011;1973;50.518;7.318;2023-04-24T12:10:25;8.37;;;4.20;;
3916;SDS011;1973;50.518;7.318;2023-04-24T12:12:53;5.70;;;3.60;;
3916;SDS011;1973;50.518;7.318;2023-04-24T12:15:23;4.33;;;3.20;;
3916;SDS011;1973;50.518;7.318;2023-04-24T12:17:50;7.13;;;3.40;;
3916;SDS011;1973;50.518;7.318;2023-04-24T12:20:23;5.03;;;3.93;;
3916;SDS011;1973;50.518;7.318;2023-04-24T12:22:55;5.03;;;3.20;;
3916;SDS011;1973;50.518;7.318;2023-04-24T12:25:24;5.00;;;3.70;;
3916;SDS011;1973;50.518;7.318;2023-04-24T12:27:57;5.47;;;3.87;;
3916;SDS011;1973;50.518;7.318;2023-04-24T12:30:42;3.90;;;3.43;;
3916;SDS011;1973;50.518;7.318;2023-04-24T12:33:11;5.80;;;3.97;;
3916;SDS011;1973;50.518;7.318;2023-04-24T12:35:39;4.03;;;3.60;;
3916;SDS011;1973;50.518;7.318;2023-04-24T12:38:08;7.23;;;4.90;;
3916;SDS011;1973;50.518;7.318;2023-04-24T12:40:39;8.03;;;3.97;;
3916;SDS011;1973;50.518;7.318;2023-04-24T12:43:17;6.67;;;4.50;;
3916;SDS011;1973;50.518;7.318;2023-04-24T12:45:45;10.60;;;5.07;;
3916;SDS011;1973;50.518;7.318;2023-04-24T12:48:12;8.83;;;4.43;;
3916;SDS011;1973;50.518;7.318;2023-04-24T12:50:40;7.00;;;4.77;;
3916;SDS011;1973;50.518;7.318;2023-04-24T12:53:10;6.60;;;5.23;;
3916;SDS011;1973;50.518;7.318;2023-04-24T12:55:37;6.53;;;5.07;;
3916;SDS011;1973;50.518;7.318;2023-04-24T12:58:03;9.90;;;6.20;;
3916;SDS011;1973;50.518;7.318;2023-04-24T13:00:30;8.60;;;4.80;;
3916;SDS011;1973;50.518;7.318;2023-04-24T13:02:56;6.43;;;5.00;;
3916;SDS011;1973;50.518;7.318;2023-04-24T13:05:23;10.23;;;5.10;;
3916;SDS011;1973;50.518;7.318;2023-04-24T13:07:50;8.60;;;5.40;;
3916;SDS011;1973;50.518;7.318;2023-04-24T13:10:17;7.70;;;5.53;;
3916;SDS011;1973;50.518;7.318;2023-04-24T13:12:43;5.83;;;4.83;;
3916;SDS011;1973;50.518;7.318;2023-04-24T13:15:12;4.97;;;4.03;;
3916;SDS011;1973;50.518;7.318;2023-04-24T13:17:38;5.57;;;4.33;;
3916;SDS011;1973;50.518;7.318;2023-04-24T13:20:05;6.50;;;4.03;;
3916;SDS011;1973;50.518;7.318;2023-04-24T13:22:32;5.83;;;3.97;;
3916;SDS011;1973;50.518;7.318;2023-04-24T13:24:58;5.80;;;3.90;;
3916;SDS011;1973;50.518;7.318;2023-04-24T13:27:25;6.37;;;4.00;;
3916;SDS011;1973;50.518;7.318;2023-04-24T13:29:52;4.83;;;3.73;;
3916;SDS011;1973;50.518;7.318;2023-04-24T13:32:18;5.40;;;3.83;;
3916;SDS011;1973;50.518;7.318;2023-04-24T13:34:45;4.27;;;3.10;;
3916;SDS011;1973;50.518;7.318;2023-04-24T13:37:12;7.40;;;4.00;;
3916;SDS011;1973;50.518;7.318;2023-04-24T13:39:38;4.17;;;3.33;;
3916;SDS011;1973;50.518;7.318;2023-04-24T13:42:05;4.93;;;3.50;;
3916;SDS011;1973;50.518;7.318;2023-04-24T13:44:31;6.60;;;3.90;;
3916;SDS011;1973;50.518;7.318;2023-04-24T13:46:58;5.47;;;3.23;;
3916;SDS011;1973;50.518;7.318;2023-04-24T13:49:26;5.07;;;3.70;;
3916;SDS011;1973;50.518;7.318;2023-04-24T13:51:53;4.60;;;3.57;;
3916;SDS011;1973;50.518;7.318;2023-04-24T13:54:20;9.03;;;4.67;;
3916;SDS011;1973;50.518;7.318;2023-04-24T13:56:48;5.43;;;4.37;;
3916;SDS011;1973;50.518;7.318;2023-04-24T13:59:14;4.90;;;4.40;;
3916;SDS011;1973;50.518;7.318;2023-04-24T14:01:41;9.30;;;4.37;;
3916;SDS011;1973;50.518;7.318;2023-04-24T14:04:07;6.00;;;4.30;;
3916;SDS011;1973;50.518;7.318;2023-04-24T14:06:34;6.90;;;4.67;;
3916;SDS011;1973;50.518;7.318;2023-04-24T14:09:01;8.07;;;4.77;;
3916;SDS011;1973;50.518;7.318;2023-04-24T14:11:27;7.43;;;5.10;;
3916;SDS011;1973;50.518;7.318;2023-04-24T14:13:54;10.60;;;5.20;;
3916;SDS011;1973;50.518;7.318;2023-04-24T14:16:24;6.77;;;4.30;;
3916;SDS011;1973;50.518;7.318;2023-04-24T14:18:51;6.67;;;4.20;;
3916;SDS011;1973;50.518;7.318;2023-04-24T14:21:18;6.90;;;4.77;;
3916;SDS011;1973;50.518;7.318;2023-04-24T14:23:44;4.60;;;3.90;;
3916;SDS011;1973;50.518;7.318;2023-04-24T14:26:11;6.07;;;4.10;;
3916;SDS011;1973;50.518;7.318;2023-04-24T14:28:38;5.53;;;4.00;;
3916;SDS011;1973;50.518;7.318;2023-04-24T14:31:04;6.17;;;4.17;;
3916;SDS011;1973;50.518;7.318;2023-04-24T14:33:31;5.40;;;4.27;;
3916;SDS011;1973;50.518;7.318;2023-04-24T14:35:57;5.17;;;4.33;;
3916;SDS011;1973;50.518;7.318;2023-04-24T14:38:24;5.67;;;4.50;;
3916;SDS011;1973;50.518;7.318;2023-04-24T14:40:50;5.40;;;4.63;;
3916;SDS011;1973;50.518;7.318;2023-04-24T14:43:32;6.93;;;4.70;;
3916;SDS011;1973;50.518;7.318;2023-04-24T14:46:01;6.40;;;4.10;;
3916;SDS011;1973;50.518;7.318;2023-04-24T14:48:28;4.40;;;3.63;;
3916;SDS011;1973;50.518;7.318;2023-04-24T14:50:54;4.40;;;4.00;;
3916;SDS011;1973;50.518;7.318;2023-04-24T14:53:21;7.37;;;4.40;;
3916;SDS011;1973;50.518;7.318;2023-04-24T14:55:47;5.50;;;3.70;;
3916;SDS011;1973;50.518;7.318;2023-04-24T14:58:14;4.80;;;4.30;;
3916;SDS011;1973;50.518;7.318;2023-04-24T15:00:40;7.47;;;4.30;;
3916;SDS011;1973;50.518;7.318;2023-04-24T15:03:07;5.07;;;4.30;;
3916;SDS011;1973;50.518;7.318;2023-04-24T15:05:33;8.83;;;4.20;;
3916;SDS011;1973;50.518;7.318;2023-04-24T15:08:01;7.10;;;4.67;;
3916;SDS011;1973;50.518;7.318;2023-04-24T15:10:27;4.07;;;3.60;;
3916;SDS011;1973;50.518;7.318;2023-04-24T15:12:55;5.13;;;4.40;;
3916;SDS011;1973;50.518;7.318;2023-04-24T15:15:22;6.37;;;4.90;;
3916;SDS011;1973;50.518;7.318;2023-04-24T15:17:48;5.67;;;4.30;;
3916;SDS011;1973;50.518;7.318;2023-04-24T15:20:15;5.07;;;4.23;;
3916;SDS011;1973;50.518;7.318;2023-04-24T15:22:41;5.87;;;4.60;;
3916;SDS011;1973;50.518;7.318;2023-04-24T15:25:08;5.13;;;4.27;;
3916;SDS011;1973;50.518;7.318;2023-04-24T15:27:41;4.93;;;4.53;;
3916;SDS011;1973;50.518;7.318;2023-04-24T15:30:11;5.63;;;4.17;;